Time;durP1;ratioP1;P1;durP2;ratioP2;P2;SDS_P1;SDS_P2;PMS_P1;PMS_P2;Temp;Humidity;BMP_temperature;BMP_pressure;BME280_temperature;BME280_humidity;BME280_pressure;Samples;Min_cycle;Max_cycle;Signal;HPM_P1;HPM_P2
2021/12/31 00:00:28;;;;;;;5.43;2.78;;;14.10;99.90;;;;;;4950960;29;20086;-37
2021/12/31 00:02:54;;;;;;;5.85;2.25;;;14.00;99.90;;;;;;4952895;29;20098;-41
2021/12/31 00:05:20;;;;;;;4.82;2.42;;;14.00;99.90;;;;;;4954089;29;20019;-40
2021/12/31 00:07:46;;;;;;;10.13;3.03;;;14.00;99.90;;;;;;4941053;29;20559;-43
2021/12/31 00:10:12;;;;;;;8.70;3.47;;;14.00;99.90;;;;;;4942401;29;20362;-41
2021/12/31 00:12:40;;;;;;;8.95;2.70;;;14.00;99.90;;;;;;4941665;29;20560;-36
2021/12/31 00:15:07;;;;;;;4.57;3.03;;;14.00;99.90;;;;;;4944314;29;20377;-38
2021/12/31 00:17:33;;;;;;;3.92;2.15;;;14.00;99.90;;;;;;4945738;28;20032;-39
2021/12/31 00:20:03;;;;;;;9.93;2.83;;;14.00;99.90;;;;;;4947433;29;20020;-38
2021/12/31 00:25:13;;;;;;;7.90;3.35;;;14.00;99.90;;;;;;4946610;29;20031;-41
2021/12/31 00:27:39;;;;;;;6.53;2.85;;;14.00;99.90;;;;;;4947548;29;20384;-38
2021/12/31 00:30:06;;;;;;;5.72;2.50;;;13.90;99.90;;;;;;4947283;29;20034;-41
2021/12/31 00:32:32;;;;;;;9.35;3.05;;;13.90;99.90;;;;;;4947976;29;20027;-36
2021/12/31 00:34:57;;;;;;;7.53;2.53;;;14.00;99.90;;;;;;4945457;29;20024;-43
2021/12/31 00:37:27;;;;;;;9.05;2.70;;;13.90;99.90;;;;;;4948483;29;20168;-38
2021/12/31 00:39:53;;;;;;;5.60;2.30;;;13.90;99.90;;;;;;4946972;29;20055;-40
2021/12/31 00:42:19;;;;;;;7.00;2.17;;;14.00;99.90;;;;;;4947310;29;20029;-37
2021/12/31 00:44:44;;;;;;;10.93;2.90;;;14.00;99.90;;;;;;4950976;29;20035;-40
2021/12/31 00:47:10;;;;;;;14.90;2.40;;;14.10;99.90;;;;;;4953163;29;20466;-55
2021/12/31 00:49:35;;;;;;;5.80;2.53;;;14.10;99.90;;;;;;4953585;29;20428;-36
2021/12/31 00:52:01;;;;;;;8.65;2.40;;;14.10;99.90;;;;;;4954092;29;20046;-37
2021/12/31 00:54:27;;;;;;;6.28;1.83;;;14.10;99.90;;;;;;4948064;29;20063;-42
2021/12/31 00:56:55;;;;;;;10.32;3.15;;;14.10;99.90;;;;;;4951828;29;20070;-53
2021/12/31 00:59:21;;;;;;;8.23;1.88;;;14.10;99.90;;;;;;4952386;29;20055;-39
2021/12/31 01:01:46;;;;;;;4.78;2.05;;;14.10;99.90;;;;;;4950360;29;20034;-40
2021/12/31 01:04:12;;;;;;;7.40;2.17;;;14.10;99.90;;;;;;4953543;29;20023;-41
2021/12/31 01:06:37;;;;;;;7.38;2.38;;;14.20;99.90;;;;;;4952536;29;20031;-42
2021/12/31 01:09:03;;;;;;;2.78;1.85;;;14.20;99.90;;;;;;4948264;29;20532;-40
2021/12/31 01:11:29;;;;;;;6.03;2.22;;;14.20;99.90;;;;;;4952524;29;20034;-35
2021/12/31 01:14:01;;;;;;;7.40;2.88;;;14.20;99.90;;;;;;4952837;29;20035;-38
2021/12/31 01:16:37;;;;;;;6.88;2.35;;;14.30;99.90;;;;;;4952951;29;20365;-38
2021/12/31 01:21:33;;;;;;;5.68;1.85;;;14.40;99.90;;;;;;4950971;29;20028;-38
2021/12/31 01:24:00;;;;;;;6.38;1.75;;;14.40;99.90;;;;;;4950633;29;20488;-34
2021/12/31 01:26:27;;;;;;;3.38;2.08;;;14.40;99.90;;;;;;4945885;29;20153;-37
2021/12/31 01:28:52;;;;;;;5.65;1.73;;;14.40;99.90;;;;;;4951992;28;20041;-39
2021/12/31 01:31:18;;;;;;;4.72;1.70;;;14.40;99.90;;;;;;4955597;29;20528;-40
2021/12/31 01:33:44;;;;;;;2.78;1.58;;;14.40;99.90;;;;;;4957417;29;20027;-41
2021/12/31 01:36:09;;;;;;;4.05;1.50;;;14.40;99.90;;;;;;4954621;29;20090;-40
2021/12/31 01:38:35;;;;;;;4.80;2.15;;;14.40;99.90;;;;;;4954734;29;20034;-44
2021/12/31 01:41:01;;;;;;;3.20;2.00;;;14.40;99.90;;;;;;4956812;29;20054;-38
2021/12/31 01:43:27;;;;;;;7.15;2.10;;;14.30;99.90;;;;;;4954908;29;20024;-38
2021/12/31 01:45:55;;;;;;;6.80;2.00;;;14.30;99.90;;;;;;4939066;29;20027;-36
2021/12/31 01:48:33;;;;;;;5.50;1.40;;;14.30;99.90;;;;;;4956491;29;20472;-41
2021/12/31 01:50:59;;;;;;;;;;;14.30;99.90;;;;;;4950268;29;20046;-54
2021/12/31 01:53:26;;;;;;;6.18;1.60;;;14.30;99.90;;;;;;4953384;29;20375;-39
2021/12/31 01:55:56;;;;;;;6.18;1.80;;;14.30;99.90;;;;;;4949731;29;20098;-44
2021/12/31 01:58:23;;;;;;;4.32;1.65;;;14.30;99.90;;;;;;4950804;29;20499;-42
2021/12/31 02:00:50;;;;;;;2.47;1.67;;;14.30;99.90;;;;;;4951001;29;20388;-37
2021/12/31 02:03:18;;;;;;;6.72;1.70;;;14.40;99.90;;;;;;4948945;29;20026;-42
2021/12/31 02:05:44;;;;;;;4.63;1.80;;;14.40;99.90;;;;;;4950890;29;20554;-40
2021/12/31 02:08:10;;;;;;;3.65;1.92;;;14.40;99.90;;;;;;4954635;29;20027;-35
2021/12/31 02:10:35;;;;;;;3.63;1.60;;;14.40;99.90;;;;;;4956068;29;20170;-35
2021/12/31 02:13:01;;;;;;;9.20;1.42;;;14.40;99.90;;;;;;4954833;29;20514;-36
2021/12/31 02:15:30;;;;;;;4.60;1.55;;;14.40;99.90;;;;;;4952452;29;20027;-38
2021/12/31 02:17:56;;;;;;;7.38;1.85;;;14.40;99.90;;;;;;4955960;29;20094;-38
2021/12/31 02:20:32;;;;;;;6.80;1.80;;;14.40;99.90;;;;;;4955314;29;20025;-39
2021/12/31 02:23:06;;;;;;;8.05;1.95;;;14.50;99.90;;;;;;4955734;29;20032;-38
2021/12/31 02:25:33;;;;;;;2.72;1.45;;;14.50;99.90;;;;;;4956382;29;20034;-39
2021/12/31 02:27:59;;;;;;;3.95;1.98;;;14.40;99.90;;;;;;4939442;29;20034;-40
2021/12/31 02:30:25;;;;;;;3.92;1.50;;;14.50;99.90;;;;;;4955730;29;20023;-37
2021/12/31 02:32:51;;;;;;;7.50;1.48;;;14.50;99.90;;;;;;4949415;29;20394;-36
2021/12/31 02:35:17;;;;;;;6.10;1.67;;;14.50;99.90;;;;;;4952842;29;20380;-39
2021/12/31 02:37:43;;;;;;;8.27;1.83;;;14.40;99.90;;;;;;4953496;29;20041;-41
2021/12/31 02:40:12;;;;;;;2.60;1.73;;;14.50;99.90;;;;;;4953638;28;20446;-38
2021/12/31 02:42:39;;;;;;;6.25;1.75;;;14.50;99.90;;;;;;4945162;29;20015;-40
2021/12/31 02:45:07;;;;;;;2.63;1.60;;;14.50;99.90;;;;;;4950252;29;20027;-42
2021/12/31 02:47:33;;;;;;;2.47;1.65;;;14.50;99.90;;;;;;4943082;29;20030;-40
2021/12/31 02:50:02;;;;;;;9.18;1.45;;;14.50;99.90;;;;;;4951674;29;20102;-37
2021/12/31 02:52:27;;;;;;;4.88;1.70;;;14.40;99.90;;;;;;4943058;29;20027;-40
2021/12/31 02:54:55;;;;;;;11.23;1.30;;;14.40;99.90;;;;;;4946874;29;20074;-41
2021/12/31 02:57:21;;;;;;;6.18;1.58;;;14.40;99.90;;;;;;4950519;29;20020;-40
2021/12/31 02:59:49;;;;;;;2.90;1.65;;;14.40;99.90;;;;;;4943685;29;20032;-41
2021/12/31 03:02:20;;;;;;;3.92;1.52;;;14.40;99.90;;;;;;4943043;29;20027;-53
2021/12/31 03:04:46;;;;;;;7.82;1.45;;;14.40;99.90;;;;;;4945996;29;20477;-50
2021/12/31 03:07:13;;;;;;;4.07;1.65;;;14.50;99.90;;;;;;4951660;29;20035;-39
2021/12/31 03:09:46;;;;;;;1.67;1.52;;;14.40;99.90;;;;;;4945451;29;20507;-39
2021/12/31 03:12:13;;;;;;;2.85;1.38;;;14.40;99.90;;;;;;4936265;29;20019;-39
2021/12/31 03:14:41;;;;;;;3.70;1.40;;;14.40;99.90;;;;;;4950992;29;20028;-35
2021/12/31 03:17:07;;;;;;;7.50;1.80;;;14.40;99.90;;;;;;4949585;29;20147;-40
2021/12/31 03:19:33;;;;;;;4.57;1.40;;;14.40;99.90;;;;;;4953643;29;20052;-38
2021/12/31 03:21:58;;;;;;;2.78;1.25;;;14.40;99.90;;;;;;4946764;29;20063;-42
2021/12/31 03:24:24;;;;;;;4.63;1.42;;;14.40;99.90;;;;;;4954681;29;20031;-40
2021/12/31 03:26:50;;;;;;;7.50;1.52;;;14.40;99.90;;;;;;4954013;29;20122;-40
2021/12/31 03:29:15;;;;;;;4.63;1.50;;;14.40;99.90;;;;;;4954103;29;20031;-41
2021/12/31 03:31:41;;;;;;;3.25;1.50;;;14.40;99.90;;;;;;4949958;29;20038;-41
2021/12/31 03:34:07;;;;;;;5.30;1.20;;;14.50;99.90;;;;;;4949706;29;20032;-41
2021/12/31 03:36:32;;;;;;;4.45;1.30;;;14.40;99.90;;;;;;4941875;29;20037;-36
2021/12/31 03:38:58;;;;;;;5.20;1.73;;;14.40;99.90;;;;;;4938712;29;20019;-46
2021/12/31 03:41:23;;;;;;;5.82;1.35;;;14.40;99.90;;;;;;4944982;29;20027;-41
2021/12/31 03:43:49;;;;;;;7.07;1.50;;;14.40;99.90;;;;;;4940939;29;20015;-41
2021/12/31 03:46:15;;;;;;;4.90;1.63;;;14.40;99.90;;;;;;4936230;29;20028;-37
2021/12/31 03:48:41;;;;;;;5.53;1.90;;;14.40;99.90;;;;;;4942930;29;20031;-40
2021/12/31 03:51:06;;;;;;;3.60;1.35;;;14.40;99.90;;;;;;4942603;29;20026;-37
2021/12/31 03:53:32;;;;;;;2.25;1.20;;;14.30;99.90;;;;;;4940095;29;20126;-37
2021/12/31 03:55:57;;;;;;;3.65;1.70;;;14.40;99.90;;;;;;4942701;29;20030;-42
2021/12/31 03:58:23;;;;;;;5.38;1.90;;;14.40;99.90;;;;;;4935960;29;20050;-39
2021/12/31 04:00:49;;;;;;;5.90;1.35;;;14.40;99.90;;;;;;4937692;29;20358;-42
2021/12/31 04:03:14;;;;;;;2.03;1.45;;;14.40;99.90;;;;;;4938450;29;20035;-39
2021/12/31 04:05:42;;;;;;;6.97;1.50;;;14.40;99.90;;;;;;4950471;29;20024;-39
2021/12/31 04:08:09;;;;;;;2.78;1.20;;;14.30;99.90;;;;;;4953776;29;20479;-40
2021/12/31 04:10:35;;;;;;;2.87;1.13;;;14.30;99.90;;;;;;4952761;29;20074;-38
2021/12/31 04:13:00;;;;;;;2.42;1.30;;;14.40;99.90;;;;;;4951272;29;20821;-41
2021/12/31 04:15:26;;;;;;;3.78;1.40;;;14.40;99.90;;;;;;4954747;29;20069;-52
2021/12/31 04:17:52;;;;;;;1.67;1.00;;;14.30;99.90;;;;;;4954696;29;20135;-34
2021/12/31 04:20:20;;;;;;;9.52;1.70;;;14.30;99.90;;;;;;4954821;29;20038;-37
2021/12/31 04:22:55;;;;;;;6.53;2.25;;;14.30;99.90;;;;;;4955075;29;20031;-40
2021/12/31 04:25:22;;;;;;;4.25;1.30;;;14.30;99.90;;;;;;4955109;29;20480;-41
2021/12/31 04:27:48;;;;;;;2.60;1.60;;;14.30;99.90;;;;;;4952099;29;20028;-36
2021/12/31 04:30:14;;;;;;;1.33;1.23;;;14.30;99.90;;;;;;4953899;29;20155;-41
2021/12/31 04:32:42;;;;;;;2.17;1.40;;;14.30;99.90;;;;;;4954313;29;20026;-38
2021/12/31 04:35:08;;;;;;;5.57;1.77;;;14.30;99.90;;;;;;4936409;29;20041;-36
2021/12/31 04:37:34;;;;;;;5.05;1.60;;;14.20;99.90;;;;;;4954180;29;20032;-41
2021/12/31 04:39:59;;;;;;;1.48;1.35;;;14.30;99.90;;;;;;4953295;29;20035;-40
2021/12/31 04:42:25;;;;;;;5.43;1.70;;;14.30;99.90;;;;;;4954225;29;20030;-40
2021/12/31 04:44:51;;;;;;;1.42;1.30;;;14.20;99.90;;;;;;4954450;29;20046;-40
2021/12/31 04:47:16;;;;;;;4.65;1.30;;;14.30;99.90;;;;;;4953152;29;20027;-42
2021/12/31 04:49:42;;;;;;;1.70;1.38;;;14.30;99.90;;;;;;4954340;29;20027;-37
2021/12/31 04:52:08;;;;;;;2.42;1.17;;;14.30;99.90;;;;;;4954190;29;20035;-43
2021/12/31 04:54:33;;;;;;;1.73;1.20;;;14.30;99.90;;;;;;4953406;29;20031;-38
2021/12/31 04:56:59;;;;;;;5.00;1.83;;;14.30;99.90;;;;;;4953802;29;20038;-44
2021/12/31 04:59:25;;;;;;;4.25;1.60;;;14.30;99.90;;;;;;4954022;29;20046;-37
2021/12/31 05:01:52;;;;;;;2.95;1.50;;;14.30;99.90;;;;;;4954193;29;20028;-53
2021/12/31 05:04:17;;;;;;;8.07;1.42;;;14.30;99.90;;;;;;4955976;28;20122;-39
2021/12/31 05:06:43;;;;;;;2.75;1.52;;;14.20;99.90;;;;;;4956983;29;20531;-46
2021/12/31 05:09:10;;;;;;;2.83;1.17;;;14.20;99.90;;;;;;4957900;29;20118;-39
2021/12/31 05:11:36;;;;;;;8.25;1.45;;;14.10;99.90;;;;;;4957653;29;20031;-41
2021/12/31 05:14:04;;;;;;;3.05;1.15;;;14.00;99.90;;;;;;4958122;29;20035;-39
2021/12/31 05:16:30;;;;;;;4.05;1.50;;;14.00;99.90;;;;;;4956235;29;20507;-37
2021/12/31 05:18:56;;;;;;;4.82;1.38;;;14.00;99.90;;;;;;4940074;29;20070;-38
2021/12/31 05:21:21;;;;;;;2.05;1.38;;;13.90;99.90;;;;;;4956918;29;20023;-36
2021/12/31 05:23:47;;;;;;;5.28;1.10;;;13.90;99.90;;;;;;4957681;29;20024;-39
2021/12/31 05:26:12;;;;;;;1.60;1.10;;;13.90;99.90;;;;;;4954238;29;20154;-35
2021/12/31 05:28:38;;;;;;;3.15;1.10;;;13.80;99.90;;;;;;4941864;29;20110;-41
2021/12/31 05:31:04;;;;;;;3.67;1.27;;;13.80;99.90;;;;;;4957221;29;20046;-40
2021/12/31 05:33:30;;;;;;;5.75;1.20;;;13.80;99.90;;;;;;4957727;29;20042;-36
2021/12/31 05:35:59;;;;;;;3.08;1.42;;;13.80;99.90;;;;;;4956964;29;20063;-41
2021/12/31 05:38:25;;;;;;;2.08;1.38;;;13.80;99.90;;;;;;4957359;29;20031;-37
2021/12/31 05:40:51;;;;;;;3.88;1.73;;;13.70;99.90;;;;;;4956538;29;20106;-40
2021/12/31 05:43:16;;;;;;;4.72;1.30;;;13.70;99.90;;;;;;4937158;29;20035;-40
2021/12/31 05:45:42;;;;;;;3.47;1.20;;;13.70;99.90;;;;;;4940649;29;20035;-62
2021/12/31 05:48:08;;;;;;;4.10;1.85;;;13.80;99.90;;;;;;4957271;29;20096;-38
2021/12/31 05:50:33;;;;;;;2.05;1.65;;;13.80;99.90;;;;;;4957494;29;20023;-42
2021/12/31 05:53:00;;;;;;;2.20;1.27;;;13.80;99.90;;;;;;4957226;29;20477;-41
2021/12/31 05:55:27;;;;;;;2.50;1.40;;;13.80;99.90;;;;;;4956459;29;20319;-40
2021/12/31 05:57:55;;;;;;;4.82;2.50;;;13.80;99.90;;;;;;4939585;29;20547;-42
2021/12/31 06:00:22;;;;;;;1.48;1.25;;;13.70;99.90;;;;;;4957026;29;20392;-39
2021/12/31 06:02:48;;;;;;;5.32;1.58;;;13.70;99.90;;;;;;4956646;29;20146;-40
2021/12/31 06:05:14;;;;;;;5.40;1.63;;;13.70;99.90;;;;;;4956695;29;20476;-39
2021/12/31 06:07:40;;;;;;;3.95;1.02;;;13.70;99.90;;;;;;4952997;29;20037;-40
2021/12/31 06:10:06;;;;;;;2.92;1.63;;;13.60;99.90;;;;;;4955664;29;20042;-42
2021/12/31 06:12:34;;;;;;;1.60;1.27;;;13.60;99.90;;;;;;4957174;29;20539;-43
2021/12/31 06:15:03;;;;;;;1.35;1.10;;;13.60;99.90;;;;;;4956938;28;20510;-41
2021/12/31 06:17:29;;;;;;;2.20;1.23;;;13.60;99.90;;;;;;4954215;29;20073;-38
2021/12/31 06:19:55;;;;;;;4.45;1.30;;;13.60;99.90;;;;;;4956871;29;20495;-41
2021/12/31 06:22:21;;;;;;;3.50;1.30;;;13.70;99.90;;;;;;4956480;29;20036;-41
2021/12/31 06:24:47;;;;;;;5.75;1.17;;;13.60;99.90;;;;;;4956440;29;20033;-38
2021/12/31 06:27:13;;;;;;;3.40;1.45;;;13.60;99.90;;;;;;4955847;29;20106;-39
2021/12/31 06:29:39;;;;;;;6.38;1.42;;;13.50;99.90;;;;;;4956132;29;20027;-38
2021/12/31 06:32:05;;;;;;;2.78;1.48;;;13.50;99.90;;;;;;4956162;29;20139;-40
2021/12/31 06:34:30;;;;;;;2.05;1.25;;;13.40;99.90;;;;;;4956184;29;20038;-38
2021/12/31 06:36:56;;;;;;;4.32;1.50;;;13.40;99.90;;;;;;4955956;29;20039;-38
2021/12/31 06:39:22;;;;;;;1.75;1.45;;;13.30;99.90;;;;;;4955846;29;20512;-39
2021/12/31 06:41:47;;;;;;;5.22;1.02;;;13.30;99.90;;;;;;4956155;29;20110;-41
2021/12/31 06:44:14;;;;;;;1.17;1.08;;;13.30;99.90;;;;;;4956106;29;20107;-39
2021/12/31 06:46:39;;;;;;;2.70;1.10;;;13.30;99.90;;;;;;4947833;29;20472;-40
2021/12/31 06:49:05;;;;;;;2.53;1.40;;;13.30;99.90;;;;;;4956177;29;20037;-41
2021/12/31 06:51:31;;;;;;;2.05;1.33;;;13.30;99.90;;;;;;4956132;29;20023;-37
2021/12/31 06:53:56;;;;;;;3.25;1.40;;;13.20;99.90;;;;;;4955731;29;20122;-41
2021/12/31 06:56:22;;;;;;;3.90;1.85;;;13.20;99.90;;;;;;4955447;29;20028;-39
2021/12/31 06:58:48;;;;;;;2.83;1.35;;;13.20;99.90;;;;;;4937743;29;20047;-37
2021/12/31 07:01:13;;;;;;;9.05;1.40;;;13.20;99.90;;;;;;4955760;29;20034;-39
2021/12/31 07:03:39;;;;;;;2.53;1.88;;;13.20;99.90;;;;;;4955325;29;20035;-41
2021/12/31 07:06:04;;;;;;;1.60;1.02;;;13.20;99.90;;;;;;4953988;29;20030;-38
2021/12/31 07:08:30;;;;;;;2.10;1.42;;;13.20;99.90;;;;;;4955517;29;20090;-39
2021/12/31 07:10:56;;;;;;;4.82;1.23;;;13.20;99.90;;;;;;4955795;29;20035;-35
2021/12/31 07:13:22;;;;;;;6.00;1.70;;;13.20;99.90;;;;;;4951750;29;20026;-44
2021/12/31 07:15:49;;;;;;;1.38;0.98;;;13.20;99.90;;;;;;4946194;29;20031;-40
2021/12/31 07:18:16;;;;;;;3.97;1.13;;;13.10;99.90;;;;;;4956089;29;20488;-39
2021/12/31 07:20:42;;;;;;;1.15;1.00;;;13.10;99.90;;;;;;4955293;29;20062;-36
2021/12/31 07:23:10;;;;;;;2.75;1.30;;;13.20;99.90;;;;;;4955585;29;20082;-40
2021/12/31 07:25:38;;;;;;;2.20;1.20;;;13.20;99.90;;;;;;4954459;29;20038;-40
2021/12/31 07:28:04;;;;;;;3.03;1.42;;;13.20;99.90;;;;;;4954627;29;20019;-40
2021/12/31 07:30:30;;;;;;;4.43;1.10;;;13.20;99.90;;;;;;4954502;29;20027;-41
2021/12/31 07:32:56;;;;;;;2.13;1.30;;;13.20;99.90;;;;;;4951951;29;20042;-42
2021/12/31 07:35:22;;;;;;;1.77;1.23;;;13.20;99.90;;;;;;4954281;29;20135;-41
2021/12/31 07:37:48;;;;;;;1.30;1.17;;;13.20;99.90;;;;;;4954895;29;20023;-33
2021/12/31 07:40:13;;;;;;;2.92;1.15;;;13.20;99.90;;;;;;4954910;29;20388;-41
2021/12/31 07:42:39;;;;;;;4.68;1.40;;;13.20;99.90;;;;;;4954916;29;20383;-46
2021/12/31 07:45:06;;;;;;;5.53;1.60;;;13.20;99.90;;;;;;4955043;29;20488;-40
2021/12/31 07:47:32;;;;;;;2.00;1.20;;;13.20;99.90;;;;;;4954920;29;20036;-42
2021/12/31 07:49:59;;;;;;;3.35;1.80;;;13.20;99.90;;;;;;4954838;29;20023;-40
2021/12/31 07:52:24;;;;;;;3.58;1.33;;;13.20;99.90;;;;;;4954676;29;20073;-42
2021/12/31 07:54:50;;;;;;;1.52;1.08;;;13.20;99.90;;;;;;4942470;29;20055;-39
2021/12/31 07:57:15;;;;;;;6.38;1.40;;;13.20;99.90;;;;;;4948184;29;20511;-46
2021/12/31 07:59:41;;;;;;;2.13;1.33;;;13.10;99.90;;;;;;4953962;29;20075;-37
2021/12/31 08:02:07;;;;;;;5.70;1.42;;;13.10;99.90;;;;;;4955169;29;20039;-39
2021/12/31 08:04:33;;;;;;;2.70;1.40;;;13.10;99.90;;;;;;4954837;29;20034;-45
2021/12/31 08:07:00;;;;;;;1.50;1.33;;;13.10;99.90;;;;;;4954673;29;20087;-38
2021/12/31 08:09:25;;;;;;;4.22;1.20;;;13.20;99.90;;;;;;4954060;29;20050;-38
2021/12/31 08:11:51;;;;;;;2.70;1.75;;;13.20;99.90;;;;;;4954240;29;20479;-40
2021/12/31 08:14:16;;;;;;;7.75;1.38;;;13.10;99.90;;;;;;4949922;29;20031;-37
2021/12/31 08:16:42;;;;;;;1.52;1.35;;;13.20;99.90;;;;;;4954053;29;20030;-38
2021/12/31 08:19:08;;;;;;;4.68;1.10;;;13.20;99.90;;;;;;4954372;29;20472;-37
2021/12/31 08:21:34;;;;;;;4.15;1.58;;;13.20;99.90;;;;;;4937079;29;20038;-39
2021/12/31 08:24:00;;;;;;;3.67;1.42;;;13.20;99.90;;;;;;4954505;29;20023;-39
2021/12/31 08:26:26;;;;;;;1.50;1.35;;;13.20;99.90;;;;;;4954360;29;20094;-40
2021/12/31 08:28:51;;;;;;;3.00;1.10;;;13.20;99.90;;;;;;4954101;29;20062;-39
2021/12/31 08:31:17;;;;;;;2.47;1.40;;;13.30;99.90;;;;;;4954578;29;20098;-39
2021/12/31 08:33:42;;;;;;;1.55;1.45;;;13.20;99.90;;;;;;4953441;29;20106;-43
2021/12/31 08:36:08;;;;;;;4.40;1.63;;;13.20;99.90;;;;;;4954515;29;20054;-41
2021/12/31 08:38:34;;;;;;;2.65;1.30;;;13.20;99.90;;;;;;4953588;29;20094;-42
2021/12/31 08:41:01;;;;;;;3.20;1.67;;;13.20;99.90;;;;;;4954268;29;20023;-41
2021/12/31 08:43:27;;;;;;;4.30;1.52;;;13.20;99.90;;;;;;4953659;29;20031;-40
2021/12/31 08:45:53;;;;;;;9.10;2.35;;;13.30;99.90;;;;;;4953856;29;20023;-38
2021/12/31 08:48:19;;;;;;;2.20;1.20;;;13.30;99.90;;;;;;4954276;29;20031;-42
2021/12/31 08:50:45;;;;;;;3.38;2.03;;;13.30;99.90;;;;;;4954196;29;20034;-39
2021/12/31 08:53:11;;;;;;;3.92;1.58;;;13.30;99.90;;;;;;4949807;29;20024;-39
2021/12/31 08:55:37;;;;;;;2.38;1.27;;;13.30;99.90;;;;;;4953587;29;20365;-38
2021/12/31 08:58:03;;;;;;;4.82;1.45;;;13.40;99.90;;;;;;4953814;29;20126;-39
2021/12/31 09:03:12;;;;;;;4.95;1.45;;;13.40;99.90;;;;;;4954336;29;20564;-42
2021/12/31 09:05:38;;;;;;;6.38;1.73;;;13.40;99.90;;;;;;4954374;29;20020;-40
2021/12/31 09:08:04;;;;;;;4.55;1.77;;;13.40;99.90;;;;;;4946201;29;20405;-40
2021/12/31 09:10:29;;;;;;;3.45;1.50;;;13.50;99.90;;;;;;4948821;29;20082;-40
2021/12/31 09:12:56;;;;;;;5.13;2.08;;;13.40;99.90;;;;;;4952005;29;20045;-40
2021/12/31 09:15:22;;;;;;;2.60;1.38;;;13.40;99.90;;;;;;4952705;29;20361;-39
2021/12/31 09:17:48;;;;;;;6.45;1.83;;;13.40;99.90;;;;;;4935919;29;20050;-41
2021/12/31 09:20:14;;;;;;;2.67;1.38;;;13.40;99.90;;;;;;4953255;29;20111;-39
2021/12/31 09:22:40;;;;;;;2.60;1.70;;;13.50;99.90;;;;;;4949799;29;20031;-39
2021/12/31 09:25:05;;;;;;;3.72;1.60;;;13.50;99.90;;;;;;4953693;29;20024;-36
2021/12/31 09:27:31;;;;;;;3.00;1.65;;;13.60;99.90;;;;;;4953732;29;20385;-35
2021/12/31 09:29:57;;;;;;;4.72;1.95;;;13.60;99.90;;;;;;4953667;29;20028;-38
2021/12/31 09:32:23;;;;;;;3.05;1.35;;;13.70;99.90;;;;;;4953662;29;20027;-42
2021/12/31 09:34:49;;;;;;;5.05;1.73;;;13.80;99.90;;;;;;4952008;29;20028;-43
2021/12/31 09:37:15;;;;;;;5.88;1.95;;;13.80;99.90;;;;;;4952512;29;20472;-44
2021/12/31 09:39:41;;;;;;;5.78;1.67;;;13.90;99.90;;;;;;4936393;29;20027;-43
2021/12/31 09:42:08;;;;;;;3.42;1.48;;;13.90;99.90;;;;;;4953399;29;20097;-40
2021/12/31 09:44:34;;;;;;;2.88;1.77;;;13.80;99.90;;;;;;4953458;29;20023;-40
2021/12/31 09:47:07;;;;;;;4.53;1.58;;;13.80;99.90;;;;;;4953012;29;20024;-41
2021/12/31 09:49:34;;;;;;;5.00;1.45;;;13.70;99.90;;;;;;4954374;28;20055;-34
2021/12/31 09:52:01;;;;;;;3.08;1.25;;;13.70;99.90;;;;;;4957289;29;20458;-41
2021/12/31 09:54:26;;;;;;;4.47;2.13;;;13.70;99.90;;;;;;4956896;29;20042;-39
2021/12/31 09:56:52;;;;;;;4.13;1.83;;;13.80;99.90;;;;;;4956931;29;20027;-36
2021/12/31 09:59:18;;;;;;;5.03;2.13;;;13.70;99.90;;;;;;4955733;29;20039;-41
2021/12/31 10:01:48;;;;;;;3.70;1.85;;;13.70;99.90;;;;;;4955263;29;20035;-39
2021/12/31 10:04:14;;;;;;;3.88;1.67;;;13.70;99.90;;;;;;4955548;29;20026;-37
2021/12/31 10:07:09;;;;;;;3.20;2.58;;;13.70;99.90;;;;;;4956211;29;20039;-38
2021/12/31 10:09:36;;;;;;;3.78;2.00;;;13.70;99.90;;;;;;4930313;29;20035;-37
2021/12/31 10:12:02;;;;;;;3.63;1.80;;;13.80;99.90;;;;;;4956376;29;20665;-39
2021/12/31 10:14:39;;;;;;;8.68;2.28;;;13.80;99.90;;;;;;4956713;29;20563;-44
2021/12/31 10:17:07;;;;;;;3.87;1.87;;;13.80;99.90;;;;;;4948988;29;20483;-38
2021/12/31 10:19:33;;;;;;;2.03;1.75;;;13.80;99.90;;;;;;4956234;29;20291;-39
2021/12/31 10:21:59;;;;;;;5.45;1.40;;;13.80;99.90;;;;;;4956736;29;20028;-41
2021/12/31 10:24:38;;;;;;;4.28;1.83;;;13.70;99.90;;;;;;4956406;29;20042;-39
2021/12/31 10:27:09;;;;;;;4.72;1.50;;;13.70;99.90;;;;;;4948247;29;20392;-38
2021/12/31 10:29:51;;;;;;;3.72;1.73;;;13.70;99.90;;;;;;4947645;29;20041;-42
2021/12/31 10:32:18;;;;;;;9.02;2.00;;;13.70;99.90;;;;;;4956272;29;20047;-36
2021/12/31 10:34:43;;;;;;;9.50;2.58;;;13.60;99.90;;;;;;4956007;29;20477;-40
2021/12/31 10:37:17;;;;;;;9.68;3.08;;;13.60;99.90;;;;;;4955870;29;20023;-45
2021/12/31 10:39:44;;;;;;;4.80;2.30;;;13.60;99.90;;;;;;4956021;29;20523;-46
2021/12/31 10:42:12;;;;;;;5.35;2.13;;;13.60;99.90;;;;;;4955943;29;20098;-42
2021/12/31 10:44:41;;;;;;;3.80;1.95;;;13.70;99.90;;;;;;4956171;29;20037;-35
2021/12/31 10:47:09;;;;;;;4.60;2.13;;;13.70;99.90;;;;;;4954592;29;20045;-38
2021/12/31 10:50:04;;;;;;;4.60;2.45;;;13.70;99.90;;;;;;4947280;29;20472;-38
2021/12/31 10:52:37;;;;;;;4.25;1.80;;;13.70;99.90;;;;;;4955560;29;20063;-39
2021/12/31 10:55:21;;;;;;;2.38;1.88;;;13.80;99.90;;;;;;4952044;29;20034;-39
2021/12/31 10:57:50;;;;;;;2.30;1.98;;;13.90;99.90;;;;;;4955056;29;20075;-53
2021/12/31 11:00:17;;;;;;;9.45;2.60;;;13.90;99.90;;;;;;4948260;29;20488;-42
2021/12/31 11:02:43;;;;;;;2.33;1.73;;;13.90;99.90;;;;;;4955112;28;20369;-38
2021/12/31 11:05:10;;;;;;;1.83;1.73;;;14.00;99.90;;;;;;4955384;29;20027;-39
2021/12/31 11:07:38;;;;;;;3.20;1.53;;;14.20;99.90;;;;;;4953845;29;20456;-42
2021/12/31 11:10:04;;;;;;;4.65;1.95;;;14.40;99.90;;;;;;4955659;29;20023;-41
2021/12/31 11:12:31;;;;;;;4.93;2.55;;;14.50;99.90;;;;;;4954822;29;20023;-41
2021/12/31 11:14:58;;;;;;;9.35;1.83;;;14.50;99.90;;;;;;4956080;29;20483;-38
2021/12/31 11:17:24;;;;;;;5.10;1.88;;;14.60;99.90;;;;;;4954281;29;20031;-41
2021/12/31 11:19:51;;;;;;;3.08;2.05;;;14.60;99.90;;;;;;4954785;29;20031;-40
2021/12/31 11:22:28;;;;;;;3.42;1.67;;;14.60;99.90;;;;;;4955283;29;20012;-38
2021/12/31 11:25:13;;;;;;;7.53;2.22;;;14.50;99.90;;;;;;4954721;29;20086;-39
2021/12/31 11:27:44;;;;;;;3.30;1.67;;;14.50;99.90;;;;;;4953878;29;20023;-40
2021/12/31 11:30:40;;;;;;;3.72;1.85;;;14.40;99.90;;;;;;4937426;29;20023;-39
2021/12/31 11:33:06;;;;;;;6.63;2.13;;;14.50;99.90;;;;;;4938608;29;20035;-42
2021/12/31 11:35:56;;;;;;;3.72;2.67;;;14.50;99.90;;;;;;4954935;29;20024;-39
2021/12/31 11:38:21;;;;;;;4.32;2.00;;;14.50;99.90;;;;;;4954395;29;20027;-43
2021/12/31 11:41:00;;;;;;;6.57;2.33;;;14.40;99.90;;;;;;4954553;29;20023;-42
2021/12/31 11:43:29;;;;;;;7.30;2.03;;;14.30;99.90;;;;;;4954343;29;20058;-37
2021/12/31 11:46:09;;;;;;;6.50;2.05;;;14.30;99.90;;;;;;4954797;29;20086;-40
2021/12/31 11:48:47;;;;;;;3.03;1.92;;;14.20;99.90;;;;;;4955223;29;20046;-39
2021/12/31 11:51:14;;;;;;;;;;;14.20;99.90;;;;;;4943287;29;20059;-43
2021/12/31 11:54:01;;;;;;;5.80;2.37;;;14.20;99.90;;;;;;4954186;29;19938;-35
2021/12/31 11:56:39;;;;;;;6.18;2.75;;;14.20;99.90;;;;;;4947332;29;20372;-37
2021/12/31 11:59:08;;;;;;;4.15;2.30;;;14.20;99.90;;;;;;4954274;29;20618;-38
2021/12/31 12:01:36;;;;;;;8.10;2.33;;;14.10;99.90;;;;;;4951333;29;20027;-42
2021/12/31 12:04:22;;;;;;;8.68;2.85;;;14.20;99.90;;;;;;4954833;29;20034;-41
2021/12/31 12:06:55;;;;;;;4.20;1.80;;;14.20;99.90;;;;;;4953755;29;20117;-40
2021/12/31 12:09:22;;;;;;;2.38;1.90;;;14.10;99.90;;;;;;4949863;29;20469;-40
2021/12/31 12:12:13;;;;;;;7.57;2.10;;;14.10;99.90;;;;;;4934652;29;20138;-41
2021/12/31 12:14:47;;;;;;;4.65;2.00;;;14.10;99.90;;;;;;4946157;28;20042;-40
2021/12/31 12:17:14;;;;;;;8.68;2.47;;;14.00;99.90;;;;;;4954228;29;20393;-40
2021/12/31 12:19:51;;;;;;;5.90;2.28;;;14.10;99.90;;;;;;4953440;29;20035;-39
2021/12/31 12:22:37;;;;;;;2.70;1.90;;;14.20;99.90;;;;;;4954376;29;20548;-42
2021/12/31 12:25:10;;;;;;;6.57;2.15;;;14.30;99.90;;;;;;4954375;29;20035;-36
2021/12/31 12:27:37;;;;;;;7.25;2.28;;;14.20;99.90;;;;;;4952761;29;20484;-42
2021/12/31 12:30:07;;;;;;;7.07;2.10;;;14.20;99.90;;;;;;4952374;29;20027;-39
2021/12/31 12:34:59;;;;;;;3.33;2.60;;;14.10;99.90;;;;;;4954464;29;20073;-39
2021/12/31 12:37:29;;;;;;;10.98;2.35;;;14.10;99.90;;;;;;4950128;29;20031;-40
2021/12/31 12:39:58;;;;;;;4.38;2.40;;;14.10;99.90;;;;;;4953862;29;20035;-36
2021/12/31 12:42:24;;;;;;;4.22;2.20;;;14.10;99.90;;;;;;4954475;29;20473;-39
2021/12/31 12:45:06;;;;;;;5.70;2.40;;;14.10;99.90;;;;;;4954472;29;20031;-39
2021/12/31 12:47:32;;;;;;;5.50;2.47;;;14.10;99.90;;;;;;4938991;29;20066;-37
2021/12/31 12:50:00;;;;;;;8.52;2.53;;;14.00;99.90;;;;;;4954452;29;20024;-35
2021/12/31 12:52:26;;;;;;;4.05;1.88;;;14.00;99.90;;;;;;4936702;29;20059;-41
2021/12/31 12:55:13;;;;;;;7.55;2.28;;;13.90;99.90;;;;;;4954023;29;20042;-39
2021/12/31 12:57:41;;;;;;;5.47;2.90;;;13.80;99.90;;;;;;4941409;29;20038;-38
2021/12/31 13:00:09;;;;;;;9.48;3.17;;;13.80;99.90;;;;;;4953138;29;20034;-38